Ossian, Iowa
Current Conditions -  °F | °C
As of 9:35 AM on Saturday 20 Dec 2014 (Local Time) from KDEH Reporting Station
Haze Haze  
Wind Chill: 20°   Ceiling: 700
Heat Index: 28°   Visibility: 3mi
Dew Point: 27°   Wind: 8mph
Humidity: 93%   Direction: 150°SSE
Pressure: 30.18"   Gusts: NA
Location:  43.15°N, 91.76°W
Report Text: KDEH 201535Z AUTO 15007KT 3SM BR OVC007 M02/M03 A3018 RMK AO2
Loading
Personal Weather Stations






























Interactive Weather Map New forecast layout! Learn more

10-Day Weather Forecast

Advertisements
Track Severe Weather on mobile